Bridgeport, West Virginia
Current Conditions -  °F | °C
As of 7:53 PM on Monday 20 Oct 2014 (Local Time) from KCKB Reporting Station
Light Rain Light Rain  
Wind Chill: 53°   Ceiling: 8000
Heat Index: 53°   Visibility: 10mi
Dew Point: 45°   Wind: 5mph
Humidity: 74%   Direction: 190°S
Pressure: 29.93"   Gusts: NA
Location:  39.29°N, 80.25°W
Report Text: KCKB 202353Z 19004KT 10SM -RA OVC080 12/07 A2993 RMK AO2 RAB10E35B52 SLP133 P0001 60001 T01170072 10144 20117 53002
Loading
Personal Weather Stations






























Interactive Weather Map
Tropical Storm Tracking
New forecast layout! Learn more

10-Day Weather Forecast

Advertisements
Track Severe Weather on mobile